createdAt,value
2018-03-03T00:00:00.000Z,97229
2018-03-03T00:05:00.000Z,97223
2018-03-03T00:10:00.000Z,97243
2018-03-03T00:15:00.000Z,97239
2018-03-03T00:20:00.000Z,97243
2018-03-03T00:25:00.000Z,97237
2018-03-03T00:30:00.000Z,97239
2018-03-03T00:35:00.000Z,97244
2018-03-03T00:40:00.000Z,97247
2018-03-03T00:45:00.000Z,97237
2018-03-03T00:50:00.000Z,97230
2018-03-03T00:55:00.000Z,97231
2018-03-03T01:00:00.000Z,97229
2018-03-03T01:05:00.000Z,97249
2018-03-03T01:10:00.000Z,97249
2018-03-03T01:15:00.000Z,97250
2018-03-03T01:20:00.000Z,97249
2018-03-03T01:25:00.000Z,97247
2018-03-03T01:30:00.000Z,97257
2018-03-03T01:35:00.000Z,97262
2018-03-03T01:40:00.000Z,97246
2018-03-03T01:45:00.000Z,97248
2018-03-03T01:50:00.000Z,97252
2018-03-03T01:55:00.000Z,97251
2018-03-03T02:00:00.000Z,97243
2018-03-03T02:05:00.000Z,97254
2018-03-03T02:10:00.000Z,97253
2018-03-03T02:15:00.000Z,97251
2018-03-03T02:20:00.000Z,97267
2018-03-03T02:25:00.000Z,97258
2018-03-03T02:30:00.000Z,97255
2018-03-03T02:35:00.000Z,97265
2018-03-03T02:40:00.000Z,97277
2018-03-03T02:45:00.000Z,97264
2018-03-03T02:50:00.000Z,97279
2018-03-03T02:55:00.000Z,97273
2018-03-03T03:00:00.000Z,97279
2018-03-03T03:05:00.000Z,97268
2018-03-03T03:10:00.000Z,97271
2018-03-03T03:15:00.000Z,97275
2018-03-03T03:20:00.000Z,97292
2018-03-03T03:25:00.000Z,97304
2018-03-03T03:30:00.000Z,97295
2018-03-03T03:35:00.000Z,97283
2018-03-03T03:40:00.000Z,97300
2018-03-03T03:45:00.000Z,97311
2018-03-03T03:50:00.000Z,97313
2018-03-03T03:55:00.000Z,97319
2018-03-03T04:00:00.000Z,97319
2018-03-03T04:05:00.000Z,97313
2018-03-03T04:10:00.000Z,97327
2018-03-03T04:15:00.000Z,97300
2018-03-03T04:20:00.000Z,97327
2018-03-03T04:25:00.000Z,97328
2018-03-03T04:30:00.000Z,97317
2018-03-03T04:35:00.000Z,97305
2018-03-03T04:40:00.000Z,97301
2018-03-03T04:45:00.000Z,97300
2018-03-03T04:50:00.000Z,97305
2018-03-03T04:55:00.000Z,97303
2018-03-03T05:00:00.000Z,97288
2018-03-03T05:05:00.000Z,97291
2018-03-03T05:10:00.000Z,97295
2018-03-03T05:15:00.000Z,97291
2018-03-03T05:20:00.000Z,97286
2018-03-03T05:25:00.000Z,97280
2018-03-03T05:30:00.000Z,97289
2018-03-03T05:35:00.000Z,97309
2018-03-03T05:40:00.000Z,97296
2018-03-03T05:45:00.000Z,97292
2018-03-03T05:51:00.000Z,97309
2018-03-03T05:56:00.000Z,97323
2018-03-03T06:01:00.000Z,97331
2018-03-03T06:06:00.000Z,97304
2018-03-03T06:11:00.000Z,97303
2018-03-03T06:16:00.000Z,97317
2018-03-03T06:21:00.000Z,97298
2018-03-03T06:26:00.000Z,97310
2018-03-03T06:31:00.000Z,97311
2018-03-03T06:36:00.000Z,97314
2018-03-03T06:41:00.000Z,97321
2018-03-03T06:46:00.000Z,97314
2018-03-03T06:51:00.000Z,97317
2018-03-03T06:56:00.000Z,97298
2018-03-03T07:01:00.000Z,97302
2018-03-03T07:06:00.000Z,97300
2018-03-03T07:11:00.000Z,97291
2018-03-03T07:16:00.000Z,97281
2018-03-03T07:21:00.000Z,97303
2018-03-03T07:26:00.000Z,97291
2018-03-03T07:31:00.000Z,97298
2018-03-03T07:36:00.000Z,97304
2018-03-03T07:41:00.000Z,97294
2018-03-03T07:46:00.000Z,97301
2018-03-03T07:51:00.000Z,97298
2018-03-03T07:56:00.000Z,97314
2018-03-03T08:01:00.000Z,97297
2018-03-03T08:06:00.000Z,97302
2018-03-03T08:11:00.000Z,97306
2018-03-03T08:16:00.000Z,97305
2018-03-03T08:21:00.000Z,97298
2018-03-03T08:26:00.000Z,97309
2018-03-03T08:31:00.000Z,97292
2018-03-03T08:36:00.000Z,97303
2018-03-03T08:41:00.000Z,97304
2018-03-03T08:46:00.000Z,97309
2018-03-03T08:51:00.000Z,97311
2018-03-03T08:56:00.000Z,97302
2018-03-03T09:01:00.000Z,97298
2018-03-03T09:06:00.000Z,97294
2018-03-03T09:11:00.000Z,97293
2018-03-03T09:16:00.000Z,97303
2018-03-03T09:21:00.000Z,97296
2018-03-03T09:26:00.000Z,97292
2018-03-03T09:31:00.000Z,97277
2018-03-03T09:36:00.000Z,97285
2018-03-03T09:41:00.000Z,97278
2018-03-03T09:46:00.000Z,97290
2018-03-03T09:51:00.000Z,97306
2018-03-03T09:56:00.000Z,97309
2018-03-03T10:01:00.000Z,97312
2018-03-03T10:06:00.000Z,97309
2018-03-03T10:11:00.000Z,97306
2018-03-03T10:16:00.000Z,97294
2018-03-03T10:21:00.000Z,97287
2018-03-03T10:26:00.000Z,97285
2018-03-03T10:31:00.000Z,97283
2018-03-03T10:36:00.000Z,97281
2018-03-03T10:41:00.000Z,97270
2018-03-03T10:46:00.000Z,97277
2018-03-03T10:51:00.000Z,97255
2018-03-03T10:56:00.000Z,97252
2018-03-03T11:01:00.000Z,97258
2018-03-03T11:06:00.000Z,97255
2018-03-03T11:11:00.000Z,97240
2018-03-03T11:16:00.000Z,97239
2018-03-03T11:21:00.000Z,97232
2018-03-03T11:26:00.000Z,97239
2018-03-03T11:31:00.000Z,97233
2018-03-03T11:36:00.000Z,97227
2018-03-03T11:41:00.000Z,97223
2018-03-03T11:47:00.000Z,97226
2018-03-03T11:52:00.000Z,97219
2018-03-03T11:57:00.000Z,97222
2018-03-03T12:02:00.000Z,97228
2018-03-03T12:07:00.000Z,97223
2018-03-03T12:12:00.000Z,97218
2018-03-03T12:17:00.000Z,97207
2018-03-03T12:22:00.000Z,97217
2018-03-03T12:27:00.000Z,97201
2018-03-03T12:32:00.000Z,97209
2018-03-03T12:37:00.000Z,97207
2018-03-03T12:42:00.000Z,97206
2018-03-03T12:47:00.000Z,97208
2018-03-03T12:52:00.000Z,97201
2018-03-03T12:57:00.000Z,97204
2018-03-03T13:02:00.000Z,97194
2018-03-03T13:07:00.000Z,97193
2018-03-03T13:12:00.000Z,97208
2018-03-03T13:17:00.000Z,97196
2018-03-03T13:22:00.000Z,97188
2018-03-03T13:27:00.000Z,97180
2018-03-03T13:32:00.000Z,97195
2018-03-03T13:37:00.000Z,97197
2018-03-03T13:42:00.000Z,97186
2018-03-03T13:47:00.000Z,97187
2018-03-03T13:52:00.000Z,97172
2018-03-03T13:57:00.000Z,97171
2018-03-03T14:02:00.000Z,97171
2018-03-03T14:07:00.000Z,97171
2018-03-03T14:12:00.000Z,97172
2018-03-03T14:17:00.000Z,97181
2018-03-03T14:22:00.000Z,97171
2018-03-03T14:27:00.000Z,97169
2018-03-03T14:32:00.000Z,97173
2018-03-03T14:37:00.000Z,97171
2018-03-03T14:42:00.000Z,97183
2018-03-03T14:47:00.000Z,97186
2018-03-03T14:52:00.000Z,97188
2018-03-03T14:57:00.000Z,97192
2018-03-03T15:02:00.000Z,97199
2018-03-03T15:07:00.000Z,97196
2018-03-03T15:12:00.000Z,97183
2018-03-03T15:17:00.000Z,97187
2018-03-03T15:22:00.000Z,97170
2018-03-03T15:27:00.000Z,97180
2018-03-03T15:32:00.000Z,97183
2018-03-03T15:37:00.000Z,97161
2018-03-03T15:42:00.000Z,97160
2018-03-03T15:47:00.000Z,97165
2018-03-03T15:52:00.000Z,97163
2018-03-03T15:57:00.000Z,97166
2018-03-03T16:02:00.000Z,97166
2018-03-03T16:07:00.000Z,97170
2018-03-03T16:12:00.000Z,97177
2018-03-03T16:17:00.000Z,97178
2018-03-03T16:22:00.000Z,97168
2018-03-03T16:27:00.000Z,97178
2018-03-03T16:32:00.000Z,97183
2018-03-03T16:37:00.000Z,97174
2018-03-03T16:42:00.000Z,97181
2018-03-03T16:47:00.000Z,97196
2018-03-03T16:52:00.000Z,97199
2018-03-03T16:57:00.000Z,97204
2018-03-03T17:02:00.000Z,97200
2018-03-03T17:07:00.000Z,97208
2018-03-03T17:12:00.000Z,97195
2018-03-03T17:17:00.000Z,97203
2018-03-03T17:22:00.000Z,97213
2018-03-03T17:27:00.000Z,97216
2018-03-03T17:32:00.000Z,97215
2018-03-03T17:37:00.000Z,97213
2018-03-03T17:42:00.000Z,97218
2018-03-03T17:47:00.000Z,97221
2018-03-03T17:53:00.000Z,97219
2018-03-03T17:58:00.000Z,97234
2018-03-03T18:03:00.000Z,97230
2018-03-03T18:08:00.000Z,97231
2018-03-03T18:13:00.000Z,97233
2018-03-03T18:18:00.000Z,97248
2018-03-03T18:23:00.000Z,97260
2018-03-03T18:28:00.000Z,97258
2018-03-03T18:33:00.000Z,97271
2018-03-03T18:38:00.000Z,97280
2018-03-03T18:43:00.000Z,97280
2018-03-03T18:48:00.000Z,97279
2018-03-03T18:53:00.000Z,97296
2018-03-03T18:58:00.000Z,97316
2018-03-03T19:03:00.000Z,97312
2018-03-03T19:08:00.000Z,97305
2018-03-03T19:13:00.000Z,97317
2018-03-03T19:18:00.000Z,97319
2018-03-03T19:23:00.000Z,97332
2018-03-03T19:28:00.000Z,97334
2018-03-03T19:33:00.000Z,97340
2018-03-03T19:38:00.000Z,97352
2018-03-03T19:43:00.000Z,97352
2018-03-03T19:48:00.000Z,97374
2018-03-03T19:53:00.000Z,97368
2018-03-03T19:58:00.000Z,97371
2018-03-03T20:03:00.000Z,97369
2018-03-03T20:08:00.000Z,97395
2018-03-03T20:13:00.000Z,97395
2018-03-03T20:18:00.000Z,97400
2018-03-03T20:23:00.000Z,97412
2018-03-03T20:28:00.000Z,97415
2018-03-03T20:33:00.000Z,97421
2018-03-03T20:38:00.000Z,97416
2018-03-03T20:43:00.000Z,97419
2018-03-03T20:48:00.000Z,97414
2018-03-03T20:53:00.000Z,97422
2018-03-03T20:58:00.000Z,97426
2018-03-03T21:03:00.000Z,97407
2018-03-03T21:08:00.000Z,97421
2018-03-03T21:13:00.000Z,97419
2018-03-03T21:18:00.000Z,97435
2018-03-03T21:23:00.000Z,97438
2018-03-03T21:28:00.000Z,97443
2018-03-03T21:33:00.000Z,97464
2018-03-03T21:38:00.000Z,97456
2018-03-03T21:43:00.000Z,97458
2018-03-03T21:48:00.000Z,97474
2018-03-03T21:53:00.000Z,97478
2018-03-03T21:58:00.000Z,97487
2018-03-03T22:03:00.000Z,97502
2018-03-03T22:08:00.000Z,97493
2018-03-03T22:13:00.000Z,97505
2018-03-03T22:18:00.000Z,97519
2018-03-03T22:23:00.000Z,97526
2018-03-03T22:28:00.000Z,97524
2018-03-03T22:33:00.000Z,97530
2018-03-03T22:38:00.000Z,97538
2018-03-03T22:43:00.000Z,97544
2018-03-03T22:48:00.000Z,97539
2018-03-03T22:53:00.000Z,97553
2018-03-03T22:58:00.000Z,97556
2018-03-03T23:03:00.000Z,97558
2018-03-03T23:08:00.000Z,97552
2018-03-03T23:13:00.000Z,97561
2018-03-03T23:18:00.000Z,97554
2018-03-03T23:23:00.000Z,97574
2018-03-03T23:28:00.000Z,97584
2018-03-03T23:33:00.000Z,97591
2018-03-03T23:39:00.000Z,97598
2018-03-03T23:44:00.000Z,97595
2018-03-03T23:49:00.000Z,97597
2018-03-03T23:54:00.000Z,97608
2018-03-03T23:59:00.000Z,97609
